Time;durP1;ratioP1;P1;durP2;ratioP2;P2;SDS_P1;SDS_P2;PMS_P1;PMS_P2;Temp;Humidity;BMP_temperature;BMP_pressure;BME280_temperature;BME280_humidity;BME280_pressure;Samples;Min_cycle;Max_cycle;Signal;HPM_P1;HPM_P2
2022/11/21 00:04:43;;;;;;;5.70;2.60;;;;;;;-4.45;70.12;101727.97;10592410;28;20039;-76
2022/11/21 00:09:45;;;;;;;4.00;3.05;;;;;;;-4.38;69.45;101738.88;10607481;27;20039;-75
2022/11/21 00:14:47;;;;;;;4.90;3.05;;;;;;;-4.36;70.05;101736.88;10608466;28;20046;-75
2022/11/21 00:25:17;;;;;;;4.53;3.05;;;;;;;-4.29;69.17;101743.31;10566090;28;20506;-75
2022/11/21 00:30:19;;;;;;;7.10;3.97;;;;;;;-4.52;68.95;101739.44;10589169;28;20087;-75
2022/11/21 00:35:21;;;;;;;5.40;3.28;;;;;;;-4.86;69.15;101735.69;10579511;28;20044;-78
2022/11/21 00:40:24;;;;;;;6.03;3.40;;;;;;;-4.62;70.51;101724.31;10609033;28;20425;-77
2022/11/21 00:45:26;;;;;;;4.07;2.95;;;;;;;-4.12;68.80;101722.81;10557967;28;20043;-75
2022/11/21 00:50:28;;;;;;;1.15;1.00;;;;;;;-3.93;67.99;101727.13;10613961;28;20050;-77
2022/11/21 00:55:30;;;;;;;4.65;3.33;;;;;;;-4.33;68.12;101726.72;10634865;28;20066;-76
2022/11/21 01:00:36;;;;;;;4.55;3.20;;;;;;;-4.42;68.48;101727.66;10635527;27;20042;-77
2022/11/21 01:05:39;;;;;;;7.68;4.13;;;;;;;-4.38;68.41;101725.50;10598029;28;20059;-76
2022/11/21 01:10:41;;;;;;;3.67;2.35;;;;;;;-4.65;68.62;101727.31;10598166;28;20040;-76
2022/11/21 01:15:43;;;;;;;7.20;3.78;;;;;;;-5.02;69.76;101732.00;10606992;28;20452;-77
2022/11/21 01:20:49;;;;;;;9.18;4.10;;;;;;;-4.88;69.88;101740.31;10574567;28;20513;-77
2022/11/21 01:25:51;;;;;;;6.93;3.38;;;;;;;-5.10;69.94;101738.09;10577885;28;20052;-77
2022/11/21 01:30:54;;;;;;;6.78;4.45;;;;;;;-4.88;70.26;101742.16;10594851;28;20044;-76
2022/11/21 01:35:56;;;;;;;6.40;3.72;;;;;;;-4.68;70.49;101734.81;10555850;28;20036;-75
2022/11/21 01:40:58;;;;;;;8.13;5.13;;;;;;;-4.46;69.47;101741.53;10580078;28;20052;-77
2022/11/21 01:46:04;;;;;;;4.75;3.28;;;;;;;-4.93;69.22;101723.06;10582830;28;20039;-78
2022/11/21 01:51:14;;;;;;;6.75;3.50;;;;;;;-4.58;69.77;101720.34;10615340;27;20055;-77
2022/11/21 01:56:16;;;;;;;8.50;3.33;;;;;;;-4.72;69.01;101718.22;10608212;28;20490;-76
2022/11/21 02:01:18;;;;;;;6.72;4.03;;;;;;;-4.70;69.12;101718.06;10590942;28;20040;-76
2022/11/21 02:06:26;;;;;;;6.90;4.05;;;;;;;-4.82;69.41;101730.03;10583463;28;20043;-76
2022/11/21 02:11:45;;;;;;;7.82;3.67;;;;;;;-5.14;68.92;101730.53;10595874;28;20039;-77
2022/11/21 02:16:52;;;;;;;3.85;2.85;;;;;;;-5.39;68.86;101722.25;10567640;28;20048;-76
2022/11/21 02:22:04;;;;;;;3.25;2.28;;;;;;;-5.40;69.97;101722.41;10562144;28;20066;-77
2022/11/21 02:27:36;;;;;;;6.03;3.22;;;;;;;-5.68;69.61;101729.63;10560564;28;20051;-75
2022/11/21 02:32:41;;;;;;;7.00;3.33;;;;;;;-5.73;69.92;101730.03;10593102;27;20047;-75
2022/11/21 02:37:46;;;;;;;4.60;2.95;;;;;;;-5.67;70.71;101718.78;10591725;27;20035;-77
2022/11/21 02:43:11;;;;;;;4.65;3.42;;;;;;;-5.71;70.62;101741.47;10586208;28;20055;-76
2022/11/21 02:48:14;;;;;;;6.00;3.55;;;;;;;-5.95;71.55;101742.00;10601791;27;20042;-76
2022/11/21 02:53:20;;;;;;;5.00;3.13;;;;;;;-5.96;71.21;101745.66;10611340;27;20040;-76
2022/11/21 02:58:47;;;;;;;4.90;2.85;;;;;;;-6.12;72.04;101732.91;10592062;28;20513;-77
2022/11/21 03:03:49;;;;;;;5.25;2.75;;;;;;;-5.86;72.47;101737.59;10599018;27;20043;-75
2022/11/21 03:08:51;;;;;;;5.65;3.40;;;;;;;-6.10;72.28;101735.44;10611291;28;20055;-76
2022/11/21 03:13:54;;;;;;;4.22;3.00;;;;;;;-6.02;73.01;101730.22;10591935;28;20043;-78
2022/11/21 03:18:57;;;;;;;4.57;2.80;;;;;;;-6.09;73.34;101737.97;10580748;28;20040;-76
2022/11/21 03:23:59;;;;;;;5.00;3.15;;;;;;;-6.13;73.86;101728.56;10613249;27;20035;-75
2022/11/21 03:29:01;;;;;;;4.25;2.75;;;;;;;-5.92;73.68;101723.00;10601574;27;20052;-77
2022/11/21 03:34:04;;;;;;;5.18;2.78;;;;;;;-5.82;73.57;101722.94;10605737;27;20063;-77
2022/11/21 03:39:06;;;;;;;5.30;2.17;;;;;;;-5.89;73.62;101724.53;10580780;28;20039;-76
2022/11/21 03:44:10;;;;;;;1.45;1.33;;;;;;;-6.12;74.27;101708.03;10595058;28;20142;-77
2022/11/21 03:49:14;;;;;;;1.52;1.42;;;;;;;-6.18;74.44;101721.97;10583240;28;20354;-75
2022/11/21 03:54:16;;;;;;;2.15;1.33;;;;;;;-6.24;74.78;101719.91;10588493;28;20039;-76
2022/11/21 03:59:19;;;;;;;2.90;1.75;;;;;;;-6.21;74.57;101716.94;10607226;27;20050;-76
2022/11/21 04:04:21;;;;;;;1.38;1.20;;;;;;;-5.93;75.38;101715.13;10600204;28;20493;-77
2022/11/21 04:09:23;;;;;;;2.88;1.60;;;;;;;-6.06;75.09;101728.00;10592312;28;20036;-76
2022/11/21 04:14:25;;;;;;;3.90;2.50;;;;;;;-6.20;75.03;101721.28;10595114;28;20039;-77
2022/11/21 04:19:27;;;;;;;4.60;3.05;;;;;;;-6.40;75.36;101720.50;10604120;28;20394;-78
2022/11/21 04:24:30;;;;;;;3.60;2.55;;;;;;;-6.25;76.20;101712.84;10585386;28;20062;-76
2022/11/21 04:29:32;;;;;;;4.13;2.33;;;;;;;-6.15;76.56;101698.47;10591008;28;20518;-78
2022/11/21 04:34:34;;;;;;;2.88;2.20;;;;;;;-6.12;76.12;101686.66;10589929;28;20035;-78
2022/11/21 04:39:40;;;;;;;2.05;1.05;;;;;;;-6.33;76.42;101678.88;10551863;28;20040;-78
2022/11/21 04:44:42;;;;;;;3.05;2.70;;;;;;;-6.43;76.27;101665.53;10605814;28;20131;-77
2022/11/21 04:49:44;;;;;;;1.92;1.33;;;;;;;-6.51;77.26;101684.13;10591078;28;20047;-79
2022/11/21 04:54:47;;;;;;;2.28;2.13;;;;;;;-6.69;77.79;101670.69;10619064;27;20048;-78
2022/11/21 04:59:49;;;;;;;0.40;0.40;;;;;;;-6.74;78.34;101661.44;10596558;28;20046;-78
2022/11/21 05:04:51;;;;;;;4.22;2.63;;;;;;;-6.78;78.74;101668.00;10563841;28;20043;-78
2022/11/21 05:09:53;;;;;;;3.00;2.15;;;;;;;-6.89;79.08;101666.38;10583641;28;20040;-78
2022/11/21 05:20:25;;;;;;;2.25;1.83;;;;;;;-6.86;78.57;101673.22;10600006;27;20442;-80
2022/11/21 05:25:27;;;;;;;2.92;2.13;;;;;;;-6.89;79.18;101666.38;10590394;28;20046;-81
2022/11/21 05:30:29;;;;;;;3.58;2.95;;;;;;;-6.93;79.06;101669.47;10549107;28;20040;-82
2022/11/21 05:35:32;;;;;;;3.50;2.35;;;;;;;-7.06;79.31;101669.75;10567684;28;20047;-79
2022/11/21 05:40:34;;;;;;;3.72;2.42;;;;;;;-7.15;79.06;101660.75;10572083;28;20048;-80
2022/11/21 05:45:36;;;;;;;1.67;1.05;;;;;;;-7.16;79.62;101669.75;10616574;28;20405;-79
2022/11/21 05:50:38;;;;;;;3.55;2.35;;;;;;;-7.15;79.50;101670.56;10591105;28;20497;-79
2022/11/21 05:55:40;;;;;;;3.80;1.63;;;;;;;-7.17;79.87;101652.06;10614446;28;20416;-78
2022/11/21 06:00:43;;;;;;;6.30;3.25;;;;;;;-7.11;80.03;101650.66;10594730;28;20047;-79
2022/11/21 06:05:49;;;;;;;5.68;2.65;;;;;;;-7.05;79.95;101656.25;10613398;28;20032;-78
2022/11/21 06:10:51;;;;;;;1.02;1.00;;;;;;;-6.96;80.38;101646.56;10629681;28;20450;-78
2022/11/21 06:16:00;;;;;;;3.90;2.95;;;;;;;-7.03;79.46;101662.31;10655978;28;20512;-78
2022/11/21 06:26:46;;;;;;;10.55;3.30;;;;;;;-7.17;79.62;101661.88;10594934;28;20517;-79
2022/11/21 06:32:07;;;;;;;6.35;3.15;;;;;;;-7.16;80.13;101675.06;10618501;27;21006;-79
2022/11/21 06:37:10;;;;;;;1.67;1.30;;;;;;;-7.16;80.18;101656.41;10583141;28;20047;-78
2022/11/21 06:42:13;;;;;;;3.28;2.10;;;;;;;-7.15;80.62;101650.09;10600692;28;20059;-78
2022/11/21 06:47:16;;;;;;;2.85;2.05;;;;;;;-7.12;80.93;101649.78;10601981;28;20040;-79
2022/11/21 06:52:18;;;;;;;5.07;2.40;;;;;;;-7.13;80.92;101674.78;10596472;28;20043;-79
2022/11/21 06:57:21;;;;;;;2.58;2.22;;;;;;;-7.17;80.86;101669.88;10601152;28;20119;-78
2022/11/21 07:02:26;;;;;;;6.85;4.32;;;;;;;-7.19;81.02;101670.03;10600317;28;20048;-78
2022/11/21 07:07:31;;;;;;;4.30;2.88;;;;;;;-7.21;81.17;101669.31;10599998;28;20533;-78
2022/11/21 07:17:57;;;;;;;5.20;3.25;;;;;;;-7.16;81.56;101658.22;10603348;28;20051;-78
2022/11/21 07:22:59;;;;;;;1.90;1.73;;;;;;;-7.17;81.73;101656.56;10602831;28;20062;-78
2022/11/21 07:28:02;;;;;;;3.10;2.03;;;;;;;-7.15;82.37;101649.25;10601187;28;20063;-78
2022/11/21 07:33:05;;;;;;;2.20;2.00;;;;;;;-7.07;82.14;101660.91;10603045;28;20075;-79
2022/11/21 07:38:08;;;;;;;4.28;3.30;;;;;;;-7.06;82.03;101670.59;10602204;28;20040;-79
2022/11/21 07:43:10;;;;;;;0.70;0.70;;;;;;;-7.08;82.48;101658.38;10573457;28;20048;-79
2022/11/21 07:48:13;;;;;;;6.50;4.25;;;;;;;-7.06;82.67;101681.25;10566920;28;20550;-79
2022/11/21 07:53:15;;;;;;;1.60;1.50;;;;;;;-7.03;82.83;101662.31;10572918;28;20419;-78
2022/11/21 07:58:17;;;;;;;2.42;1.90;;;;;;;-7.04;82.86;101665.94;10574398;28;20128;-78
2022/11/21 08:03:19;;;;;;;5.50;3.88;;;;;;;-7.07;82.69;101671.56;10545177;28;20498;-79
2022/11/21 08:08:21;;;;;;;4.70;2.85;;;;;;;-7.11;82.73;101669.34;10566287;28;20044;-78
2022/11/21 08:13:24;;;;;;;5.85;3.53;;;;;;;-7.11;83.36;101670.19;10573216;28;20040;-78
2022/11/21 08:18:26;;;;;;;3.35;2.45;;;;;;;-7.06;83.08;101667.91;10559182;28;20032;-78
2022/11/21 08:23:28;;;;;;;3.90;3.08;;;;;;;-7.04;83.63;101671.28;10551976;28;20375;-78
2022/11/21 08:28:30;;;;;;;3.00;2.40;;;;;;;-6.99;83.08;101663.69;10570302;28;20074;-79
2022/11/21 08:33:32;;;;;;;4.07;3.22;;;;;;;-6.97;83.92;101684.88;10572278;28;20052;-78
2022/11/21 08:38:35;;;;;;;2.85;2.10;;;;;;;-6.93;83.77;101656.97;10537578;28;20062;-79
2022/11/21 08:43:37;;;;;;;4.55;1.90;;;;;;;-6.88;83.99;101657.38;10562054;28;20040;-78
2022/11/21 08:48:39;;;;;;;5.20;2.75;;;;;;;-6.83;83.63;101649.78;10572360;28;20502;-77
2022/11/21 08:53:41;;;;;;;2.17;1.77;;;;;;;-6.78;83.94;101647.50;10529451;28;20039;-78
2022/11/21 08:58:43;;;;;;;2.47;1.33;;;;;;;-6.72;84.08;101646.09;10541374;28;20050;-78
2022/11/21 09:03:45;;;;;;;2.20;1.45;;;;;;;-6.69;84.24;101648.47;10570486;28;20131;-79
2022/11/21 09:08:48;;;;;;;0.80;0.80;;;;;;;-6.74;83.68;101632.06;10558543;28;20040;-78
2022/11/21 09:19:11;;;;;;;1.55;1.45;;;;;;;-6.80;83.98;101633.47;10561716;28;20039;-79
2022/11/21 09:24:13;;;;;;;3.38;2.47;;;;;;;-6.77;84.24;101632.34;10564042;28;20529;-78
2022/11/21 09:29:15;;;;;;;2.15;1.80;;;;;;;-6.72;84.84;101636.28;10549488;28;20525;-78
2022/11/21 09:34:22;;;;;;;4.45;2.58;;;;;;;-6.70;84.47;101630.78;10559100;28;20044;-78
2022/11/21 09:39:28;;;;;;;3.70;2.28;;;;;;;-6.75;84.44;101635.72;10564570;28;20130;-76
2022/11/21 09:44:55;;;;;;;2.05;1.38;;;;;;;-6.77;83.98;101625.19;10551772;28;20047;-79
2022/11/21 09:49:59;;;;;;;2.97;2.50;;;;;;;-6.72;84.83;101632.75;10553076;28;20040;-78
2022/11/21 09:55:05;;;;;;;5.40;3.08;;;;;;;-6.69;84.24;101619.97;10556460;28;20063;-78
2022/11/21 10:00:15;;;;;;;0.52;0.50;;;;;;;-6.68;84.41;101597.63;10526832;28;20055;-78
2022/11/21 10:05:24;;;;;;;3.83;1.67;;;;;;;-6.62;84.71;101582.84;10556213;28;20043;-78
2022/11/21 10:10:45;;;;;;;11.80;5.40;;;;;;;-6.56;84.33;101582.28;10579999;28;20040;-79
2022/11/21 10:16:02;;;;;;;2.50;1.55;;;;;;;-6.52;84.64;101582.81;10555507;28;20072;-78
2022/11/21 10:21:24;;;;;;;4.00;3.38;;;;;;;-6.52;84.68;101572.13;10559332;28;20039;-78
2022/11/21 10:26:49;;;;;;;6.38;4.30;;;;;;;-6.48;84.30;101589.53;10571742;28;20040;-77
2022/11/21 10:31:55;;;;;;;2.50;1.88;;;;;;;-6.46;84.80;101571.53;10572618;28;20510;-77
2022/11/21 10:37:10;;;;;;;12.35;2.67;;;;;;;-6.43;85.25;101574.75;10563374;28;20033;-77
2022/11/21 10:42:28;;;;;;;3.67;2.78;;;;;;;-6.40;85.47;101574.47;10551497;28;20055;-77
2022/11/21 10:47:33;;;;;;;1.83;1.52;;;;;;;-6.39;85.36;101567.31;10566232;28;20050;-77
2022/11/21 10:52:43;;;;;;;1.77;1.67;;;;;;;-6.40;85.71;101557.63;10543667;28;20502;-74
2022/11/21 10:57:50;;;;;;;4.45;3.70;;;;;;;-6.41;85.20;101543.44;10547624;28;20051;-75
2022/11/21 11:02:55;;;;;;;4.65;2.78;;;;;;;-6.38;85.10;101532.44;10511307;28;20384;-75
2022/11/21 11:07:59;;;;;;;2.85;2.40;;;;;;;-6.31;86.00;101531.84;10552284;28;20039;-76
2022/11/21 11:18:23;;;;;;;2.15;1.63;;;;;;;-6.23;85.38;101551.47;10554394;28;20040;-76
2022/11/21 11:23:26;;;;;;;2.65;2.10;;;;;;;-6.25;85.34;101540.06;10577389;28;20036;-74
2022/11/21 11:28:36;;;;;;;3.33;1.90;;;;;;;-6.24;86.28;101546.28;10548425;28;20478;-74
2022/11/21 11:33:40;;;;;;;1.48;1.38;;;;;;;-6.26;85.99;101540.22;10570755;28;20032;-75
2022/11/21 11:38:53;;;;;;;4.32;2.58;;;;;;;-6.25;85.89;101531.22;10556253;28;20039;-74
2022/11/21 11:55:12;;;;;;;3.42;1.88;;;;;;;-6.31;86.26;101531.84;10572907;28;20514;-74
2022/11/21 12:00:26;;;;;;;7.25;2.08;;;;;;;-6.34;86.40;101521.47;10556238;28;20044;-75
2022/11/21 12:05:30;;;;;;;3.08;2.30;;;;;;;-6.41;85.82;101522.06;10545166;28;20037;-74
2022/11/21 12:12:05;;;;;;;5.15;2.50;;;;;;;-6.43;86.33;101510.66;10574219;28;20040;-74
2022/11/21 12:16:04;;;;;;;3.20;2.42;;;;;;;-6.35;86.36;101511.78;10565379;28;20043;-75
2022/11/21 12:21:13;;;;;;;4.47;2.28;;;;;;;-6.33;86.30;101509.78;10571280;28;20521;-75
2022/11/21 12:26:39;;;;;;;0.90;0.85;;;;;;;-6.28;86.67;101521.69;10551948;28;20534;-75
2022/11/21 12:32:04;;;;;;;5.40;2.58;;;;;;;-6.31;86.31;101499.78;10532531;28;20066;-74
2022/11/21 12:37:15;;;;;;;2.90;1.38;;;;;;;-6.35;86.05;101499.25;10553986;28;20036;-76
2022/11/21 12:42:50;;;;;;;4.75;3.28;;;;;;;-6.38;85.98;101499.56;10556484;28;20036;-74
2022/11/21 12:59:06;;;;;;;3.30;1.90;;;;;;;-6.31;86.79;101491.78;10562820;28;20118;-75
2022/11/21 13:04:13;;;;;;;3.78;2.22;;;;;;;-6.32;86.44;101482.94;10561652;28;20525;-75
2022/11/21 13:09:18;;;;;;;3.10;1.98;;;;;;;-6.31;86.62;101479.28;10568274;28;20521;-74
2022/11/21 13:14:33;;;;;;;4.88;3.40;;;;;;;-6.39;86.07;101476.53;10569053;28;20138;-75
2022/11/21 13:19:43;;;;;;;1.52;1.20;;;;;;;-6.43;86.25;101475.97;10567221;28;20032;-73
2022/11/21 13:24:46;;;;;;;0.50;0.47;;;;;;;-6.40;86.47;101475.69;10562973;28;20059;-75
2022/11/21 13:30:10;;;;;;;4.65;2.33;;;;;;;-6.35;86.74;101479.72;10564327;28;20044;-75
2022/11/21 13:35:15;;;;;;;3.53;2.55;;;;;;;-6.42;86.18;101482.13;10560851;28;20052;-76
2022/11/21 13:40:26;;;;;;;2.38;1.88;;;;;;;-6.52;86.08;101484.88;10562959;28;20055;-76
2022/11/21 13:45:43;;;;;;;6.72;3.60;;;;;;;-6.57;86.60;101495.19;10569629;28;20043;-76
2022/11/21 13:50:51;;;;;;;5.80;3.13;;;;;;;-6.65;86.59;101519.09;10566603;28;20437;-75
2022/11/21 13:56:02;;;;;;;3.13;2.33;;;;;;;-6.73;86.40;101511.00;10547041;28;20039;-75
2022/11/21 14:01:39;;;;;;;3.85;2.13;;;;;;;-6.80;86.60;101525.88;10560060;28;20537;-76
2022/11/21 14:06:42;;;;;;;3.53;1.92;;;;;;;-6.84;86.88;101506.66;10527601;28;20044;-75
2022/11/21 14:12:00;;;;;;;1.35;1.13;;;;;;;-6.85;86.43;101512.16;10543065;28;20043;-75
2022/11/21 14:17:30;;;;;;;3.25;1.15;;;;;;;-6.89;86.55;101494.78;10561023;28;20793;-75
2022/11/21 14:22:40;;;;;;;2.25;1.38;;;;;;;-6.89;86.91;101502.78;10563114;28;20043;-74
2022/11/21 14:27:47;;;;;;;0.88;0.88;;;;;;;-6.85;86.54;101506.81;10555839;28;20059;-74
2022/11/21 14:32:49;;;;;;;4.00;2.53;;;;;;;-6.83;86.75;101505.69;10545670;28;20032;-75
2022/11/21 14:37:52;;;;;;;1.52;1.30;;;;;;;-6.86;86.52;101511.31;10526672;28;20033;-74
2022/11/21 14:42:55;;;;;;;2.05;1.85;;;;;;;-6.91;86.59;101518.94;10561233;28;20047;-74
2022/11/21 14:47:57;;;;;;;2.25;1.48;;;;;;;-6.95;87.05;101520.19;10568255;28;20051;-75
2022/11/21 14:53:00;;;;;;;2.95;1.52;;;;;;;-6.94;87.04;101529.91;10573622;28;20046;-75
2022/11/21 14:58:02;;;;;;;3.05;2.05;;;;;;;-6.89;87.26;101524.13;10546955;28;20414;-75
2022/11/21 15:03:17;;;;;;;8.82;2.78;;;;;;;-6.84;86.97;101524.50;10574738;28;20052;-74
2022/11/21 15:08:23;;;;;;;2.95;1.85;;;;;;;-6.80;87.45;101523.22;10572412;28;20043;-74
2022/11/21 15:13:29;;;;;;;1.10;1.02;;;;;;;-6.80;86.78;101520.56;10532352;28;20044;-75
2022/11/21 15:18:32;;;;;;;3.63;2.30;;;;;;;-6.79;87.45;101517.72;10535343;28;20406;-75
2022/11/21 15:23:38;;;;;;;1.23;1.13;;;;;;;-6.83;86.80;101516.34;10532810;28;20044;-75
2022/11/21 15:28:53;;;;;;;3.72;2.53;;;;;;;-6.90;86.96;101527.78;10533034;28;20052;-74
2022/11/21 15:34:03;;;;;;;4.55;2.17;;;;;;;-6.95;86.16;101512.19;10533399;28;20063;-74
2022/11/21 15:39:06;;;;;;;3.70;2.28;;;;;;;-6.96;86.98;101521.16;10527868;28;20206;-74
2022/11/21 15:44:08;;;;;;;3.47;1.88;;;;;;;-6.97;87.05;101523.97;10534271;28;20406;-74
2022/11/21 15:49:12;;;;;;;3.63;2.58;;;;;;;-7.01;86.42;101516.28;10553346;28;20041;-74
2022/11/21 15:54:17;;;;;;;2.08;1.88;;;;;;;-7.03;86.63;101510.25;10531776;28;20052;-75
2022/11/21 15:59:20;;;;;;;2.28;1.65;;;;;;;-7.01;87.07;101497.59;10531056;28;20517;-74
2022/11/21 16:04:22;;;;;;;1.85;1.20;;;;;;;-7.02;86.92;101508.44;10530346;28;20055;-75
2022/11/21 16:09:24;;;;;;;1.25;1.15;;;;;;;-7.09;87.07;101510.84;10531237;28;20053;-75
2022/11/21 16:14:27;;;;;;;4.68;2.88;;;;;;;-7.12;86.41;101507.59;10547655;28;20418;-75
2022/11/21 16:19:29;;;;;;;1.58;1.42;;;;;;;-7.22;86.93;101507.66;10573456;28;20308;-75
2022/11/21 16:24:31;;;;;;;1.35;1.00;;;;;;;-7.27;86.78;101506.41;10573482;28;20387;-75
2022/11/21 16:29:34;;;;;;;4.43;2.10;;;;;;;-7.33;86.27;101497.13;10555084;28;20518;-76
2022/11/21 16:34:36;;;;;;;1.98;0.60;;;;;;;-7.37;87.54;101501.09;10572998;28;20441;-74
2022/11/21 16:39:39;;;;;;;0.88;0.82;;;;;;;-7.39;87.55;101487.91;10572452;28;20067;-73
2022/11/21 16:44:43;;;;;;;2.13;0.73;;;;;;;-7.31;87.29;101485.34;10573053;28;20422;-74
2022/11/21 16:49:46;;;;;;;1.77;0.70;;;;;;;-7.30;87.89;101483.50;10564557;28;20024;-75
2022/11/21 16:54:49;;;;;;;6.55;3.45;;;;;;;-7.28;87.54;101483.41;10570387;28;20044;-75
2022/11/21 16:59:54;;;;;;;3.60;2.40;;;;;;;-7.24;88.24;101474.97;10528091;28;20143;-75
2022/11/21 17:04:56;;;;;;;2.38;1.50;;;;;;;-7.24;88.14;101461.63;10564866;28;20043;-74
2022/11/21 17:09:59;;;;;;;1.85;1.45;;;;;;;-7.23;88.45;101449.97;10563104;28;20387;-75
2022/11/21 17:15:02;;;;;;;1.77;1.30;;;;;;;-7.30;87.81;101462.19;10554988;28;20036;-76
2022/11/21 17:20:06;;;;;;;2.90;1.90;;;;;;;-7.45;87.45;101459.16;10560030;28;20047;-76
2022/11/21 17:25:08;;;;;;;6.28;3.05;;;;;;;-7.57;87.57;101440.81;10565317;28;20039;-77
2022/11/21 17:30:14;;;;;;;5.40;1.42;;;;;;;-7.61;87.51;101424.28;10529174;28;20040;-75
2022/11/21 17:35:17;;;;;;;2.83;1.92;;;;;;;-7.60;87.84;101431.28;10528671;28;20052;-77
2022/11/21 17:40:22;;;;;;;2.85;2.00;;;;;;;-7.54;88.27;101441.34;10568408;28;20122;-76
2022/11/21 17:45:24;;;;;;;5.07;1.98;;;;;;;-7.56;88.82;101446.00;10562191;28;20036;-75
2022/11/21 17:50:29;;;;;;;5.57;2.67;;;;;;;-7.57;88.73;101444.31;10548103;28;20047;-80
2022/11/21 17:55:31;;;;;;;2.78;1.88;;;;;;;-7.53;89.04;101437.72;10563973;28;20529;-76
2022/11/21 18:00:34;;;;;;;4.15;2.38;;;;;;;-7.47;88.90;101433.63;10559203;28;20043;-76
2022/11/21 18:06:07;;;;;;;3.97;2.50;;;;;;;-7.49;88.70;101448.91;10575459;28;20051;-77
2022/11/21 18:11:12;;;;;;;2.35;1.55;;;;;;;-7.60;88.40;101437.44;10566694;28;20038;-77
2022/11/21 18:16:16;;;;;;;4.30;2.83;;;;;;;-7.65;88.69;101438.84;10574513;28;20038;-78
2022/11/21 18:21:23;;;;;;;2.95;1.60;;;;;;;-7.70;89.00;101428.63;10562978;28;20514;-77
2022/11/21 18:26:31;;;;;;;4.93;2.63;;;;;;;-7.68;89.35;101431.97;10564684;28;20403;-76
2022/11/21 18:32:03;;;;;;;3.10;2.50;;;;;;;-7.64;89.35;101443.19;10567532;28;20040;-76
2022/11/21 18:37:09;;;;;;;4.97;2.53;;;;;;;-7.61;88.74;101451.75;10571176;28;20040;-77
2022/11/21 18:42:12;;;;;;;3.88;2.75;;;;;;;-7.64;89.33;101462.69;10555972;28;20044;-78
2022/11/21 18:47:14;;;;;;;2.20;1.27;;;;;;;-7.70;88.99;101441.94;10569666;28;20041;-77
2022/11/21 18:52:16;;;;;;;5.25;2.58;;;;;;;-7.68;89.28;101444.47;10545742;28;20052;-79
2022/11/21 18:57:18;;;;;;;3.60;2.38;;;;;;;-7.72;88.80;101446.59;10559985;28;20059;-75
2022/11/21 19:02:20;;;;;;;6.50;3.58;;;;;;;-7.79;88.87;101448.16;10564607;28;20143;-76
2022/11/21 19:07:22;;;;;;;7.05;3.45;;;;;;;-7.78;88.57;101449.00;10566872;28;20048;-76
2022/11/21 19:12:25;;;;;;;5.15;2.97;;;;;;;-7.75;89.48;101451.38;10565034;28;20039;-75
2022/11/21 19:17:27;;;;;;;7.15;3.97;;;;;;;-7.77;89.43;101443.50;10565274;28;20044;-76
2022/11/21 19:22:30;;;;;;;8.30;4.32;;;;;;;-7.71;89.48;101456.25;10566896;28;20044;-75
2022/11/21 19:27:32;;;;;;;8.63;5.05;;;;;;;-7.73;89.37;101450.22;10565656;28;20052;-75
2022/11/21 19:32:40;;;;;;;3.53;2.40;;;;;;;-7.70;89.05;101457.94;10556237;28;20036;-75
2022/11/21 19:37:43;;;;;;;1.48;1.30;;;;;;;-7.78;89.55;101438.34;10561863;28;20047;-75
2022/11/21 19:42:45;;;;;;;5.65;4.07;;;;;;;-7.84;89.68;101429.06;10570981;28;20041;-75
2022/11/21 19:47:48;;;;;;;8.55;4.57;;;;;;;-7.85;89.94;101431.88;10576580;28;20036;-75
2022/11/21 19:52:51;;;;;;;5.95;3.78;;;;;;;-7.81;89.47;101431.47;10571437;28;20036;-74
2022/11/21 19:57:54;;;;;;;5.80;3.55;;;;;;;-7.74;89.96;101421.06;10571874;28;20051;-75
2022/11/21 20:02:57;;;;;;;5.72;3.88;;;;;;;-7.66;90.09;101430.00;10555399;28;20047;-74
2022/11/21 20:07:59;;;;;;;6.90;3.72;;;;;;;-7.65;90.52;101423.69;10568936;28;20028;-75
2022/11/21 20:13:02;;;;;;;6.75;4.05;;;;;;;-7.66;90.69;101429.16;10566023;28;20044;-76
2022/11/21 20:18:04;;;;;;;4.90;2.83;;;;;;;-7.71;91.10;101416.28;10557764;28;20102;-75
2022/11/21 20:23:07;;;;;;;6.00;3.17;;;;;;;-7.71;90.99;101421.63;10566723;28;20052;-78
2022/11/21 20:28:09;;;;;;;5.15;3.50;;;;;;;-7.69;91.39;101437.47;10541385;28;20055;-78
2022/11/21 20:33:11;;;;;;;5.40;3.00;;;;;;;-7.70;91.20;101415.31;10571704;28;20502;-78
2022/11/21 20:38:14;;;;;;;4.32;3.20;;;;;;;-7.66;91.67;101438.00;10568548;28;20510;-78
2022/11/21 20:43:16;;;;;;;5.47;3.47;;;;;;;-7.65;91.90;101429.03;10567342;28;20032;-77
2022/11/21 20:48:18;;;;;;;4.68;2.80;;;;;;;-7.63;91.44;101411.09;10567110;28;20051;-82
2022/11/21 20:53:21;;;;;;;3.42;2.65;;;;;;;-7.53;91.61;101413.72;10559555;28;20048;-78
2022/11/21 20:58:27;;;;;;;5.70;3.38;;;;;;;-7.49;91.94;101407.09;10575790;28;20141;-84
2022/11/21 21:03:31;;;;;;;4.72;3.05;;;;;;;-7.44;91.95;101398.69;10537712;28;20044;-77
2022/11/21 21:08:34;;;;;;;7.53;5.03;;;;;;;-7.41;92.16;101407.25;10552763;28;20054;-85
2022/11/21 21:13:37;;;;;;;4.35;3.38;;;;;;;-7.41;92.48;101398.41;10534559;28;20040;-76
2022/11/21 21:18:39;;;;;;;3.70;2.80;;;;;;;-7.38;92.45;101406.09;10565659;28;20046;-77
2022/11/21 21:23:44;;;;;;;3.88;2.08;;;;;;;-7.35;92.03;101409.31;10569262;28;20051;-77
2022/11/21 21:28:46;;;;;;;6.18;3.42;;;;;;;-7.30;92.62;101400.88;10554890;28;20052;-84
2022/11/21 21:33:48;;;;;;;5.70;3.97;;;;;;;-7.25;92.52;101409.28;10562732;28;20039;-80
2022/11/21 21:38:52;;;;;;;7.72;4.47;;;;;;;-7.23;92.97;101395.81;10569929;28;20048;-80
2022/11/21 21:43:55;;;;;;;5.53;3.58;;;;;;;-7.22;92.94;101392.16;10568189;28;20044;-79
2022/11/21 21:48:58;;;;;;;7.78;4.22;;;;;;;-7.20;92.87;101391.00;10548676;28;20342;-74
2022/11/21 21:54:00;;;;;;;6.22;4.05;;;;;;;-7.19;93.11;101400.69;10564796;28;20413;-79
2022/11/21 21:59:02;;;;;;;7.78;4.35;;;;;;;-7.25;93.14;101403.94;10566520;28;20418;-80
2022/11/21 22:04:05;;;;;;;5.85;3.80;;;;;;;-7.34;93.12;101410.16;10575304;28;20044;-82
2022/11/21 22:09:07;;;;;;;6.72;3.97;;;;;;;-7.38;93.57;101392.78;10572065;28;20340;-79
2022/11/21 22:14:11;;;;;;;6.18;4.03;;;;;;;-7.44;93.66;101410.19;10573666;28;20064;-80
2022/11/21 22:19:14;;;;;;;6.03;3.28;;;;;;;-7.50;93.52;101401.94;10552456;28;20028;-78
2022/11/21 22:24:16;;;;;;;6.05;3.47;;;;;;;-7.53;94.24;101400.41;10567158;28;20046;-83
2022/11/21 22:29:18;;;;;;;7.47;3.58;;;;;;;-7.56;94.04;101400.69;10558556;28;20044;-80
2022/11/21 22:34:21;;;;;;;6.88;3.42;;;;;;;-7.58;94.22;101396.50;10553883;28;20040;-81
2022/11/21 22:39:24;;;;;;;5.97;4.10;;;;;;;-7.60;93.80;101389.50;10569467;28;20046;-82
2022/11/21 22:44:26;;;;;;;8.32;4.80;;;;;;;-7.66;94.29;101400.69;10555298;28;20036;-81
2022/11/21 22:49:28;;;;;;;7.47;4.32;;;;;;;-7.66;94.29;101379.38;10573734;28;20416;-78
2022/11/21 22:54:31;;;;;;;4.90;2.88;;;;;;;-7.62;93.89;101385.28;10560506;28;20129;-85
2022/11/21 22:59:33;;;;;;;6.10;3.72;;;;;;;-7.63;94.55;101378.28;10575526;28;20048;-79
2022/11/21 23:04:35;;;;;;;6.55;4.30;;;;;;;-7.63;94.85;101384.44;10574090;28;20040;-76
2022/11/21 23:09:37;;;;;;;6.40;4.43;;;;;;;-7.63;94.62;101391.59;10539090;28;20040;-76
2022/11/21 23:14:39;;;;;;;6.95;3.92;;;;;;;-7.64;94.48;101380.06;10550959;28;20421;-76
2022/11/21 23:19:42;;;;;;;6.82;4.30;;;;;;;-7.60;94.40;101376.16;10570214;28;20063;-76
2022/11/21 23:24:44;;;;;;;7.00;4.20;;;;;;;-7.61;94.77;101382.47;10567993;28;20048;-78
2022/11/21 23:29:47;;;;;;;7.18;4.50;;;;;;;-7.63;95.23;101373.78;10569005;28;20059;-77
2022/11/21 23:34:49;;;;;;;8.32;5.00;;;;;;;-7.60;94.96;101383.31;10563545;28;20047;-83
2022/11/21 23:39:51;;;;;;;11.75;6.80;;;;;;;-7.68;95.08;101357.38;10554088;28;20028;-75
2022/11/21 23:44:53;;;;;;;9.70;6.00;;;;;;;-7.66;95.03;101375.88;10569465;28;20039;-79
2022/11/21 23:49:56;;;;;;;8.25;4.20;;;;;;;-7.63;95.13;101363.13;10558297;28;20052;-75
2022/11/21 23:54:58;;;;;;;11.98;6.05;;;;;;;-7.58;95.44;101359.19;10561703;28;20722;-76
